Time;durP1;ratioP1;P1;durP2;ratioP2;P2;SDS_P1;SDS_P2;PMS_P1;PMS_P2;Temp;Humidity;BMP_temperature;BMP_pressure;BME280_temperature;BME280_humidity;BME280_pressure;Samples;Min_cycle;Max_cycle;Signal;HPM_P1;HPM_P2
2022/06/05 00:01:17;;;;;;;22.00;13.30;;;;;;;;;;5075755;28;20101;-75
2022/06/05 00:03:46;;;;;;;23.40;14.98;;;;;;;;;;5068972;28;20449;-76
2022/06/05 00:06:20;;;;;;;18.38;13.50;;;;;;;;;;5070750;28;20514;-75
2022/06/05 00:08:55;;;;;;;20.38;13.63;;;;;;;;;;5075104;28;20044;-76
2022/06/05 00:11:22;;;;;;;22.77;14.43;;;;;;;;;;5075171;28;20075;-75
2022/06/05 00:13:51;;;;;;;17.75;14.10;;;;;;;;;;5074547;28;20050;-74
2022/06/05 00:16:19;;;;;;;18.45;14.38;;;;;;;;;;5055643;28;20045;-74
2022/06/05 00:18:45;;;;;;;24.20;14.73;;;;;;;;;;5056864;28;20048;-75
2022/06/05 00:21:12;;;;;;;17.67;13.73;;;;;;;;;;5056043;28;20398;-74
2022/06/05 00:23:38;;;;;;;22.02;14.50;;;;;;;;;;5065309;28;20044;-74
2022/06/05 00:26:19;;;;;;;22.95;14.00;;;;;;;;;;5059043;28;20075;-75
2022/06/05 00:28:54;;;;;;;19.08;13.63;;;;;;;;;;5088140;28;20047;-75
2022/06/05 00:31:31;;;;;;;19.70;13.90;;;;;;;;;;5071524;28;20162;-75
2022/06/05 00:33:57;;;;;;;20.52;14.90;;;;;;;;;;5072065;28;20049;-75
2022/06/05 00:36:23;;;;;;;22.33;15.55;;;;;;;;;;5055516;28;20409;-75
2022/06/05 00:38:59;;;;;;;21.25;14.35;;;;;;;;;;5067634;28;20506;-75
2022/06/05 00:41:38;;;;;;;21.25;14.82;;;;;;;;;;5075559;28;20481;-75
2022/06/05 00:44:05;;;;;;;20.25;13.50;;;;;;;;;;5070383;28;20057;-75
2022/06/05 00:46:32;;;;;;;20.95;15.35;;;;;;;;;;5058143;28;20048;-75
2022/06/05 00:48:58;;;;;;;24.13;16.02;;;;;;;;;;5070163;28;20040;-75
2022/06/05 00:51:25;;;;;;;21.40;14.55;;;;;;;;;;5071900;28;20040;-75
2022/06/05 00:53:51;;;;;;;23.80;15.85;;;;;;;;;;5074412;28;20047;-76
2022/06/05 00:56:17;;;;;;;20.85;15.70;;;;;;;;;;5075820;28;20036;-76
2022/06/05 00:58:44;;;;;;;24.38;16.02;;;;;;;;;;5079168;28;20045;-75
2022/06/05 01:01:10;;;;;;;21.75;15.98;;;;;;;;;;5055605;28;20410;-75
2022/06/05 01:03:36;;;;;;;27.38;16.27;;;;;;;;;;5065333;28;20037;-75
2022/06/05 01:06:03;;;;;;;25.50;17.08;;;;;;;;;;5055136;28;20510;-76
2022/06/05 01:08:29;;;;;;;25.00;16.88;;;;;;;;;;5066300;28;20407;-75
2022/06/05 01:11:13;;;;;;;22.40;16.95;;;;;;;;;;5074904;28;20055;-74
2022/06/05 01:13:42;;;;;;;25.90;17.95;;;;;;;;;;5062767;28;20048;-75
2022/06/05 01:16:14;;;;;;;24.48;16.67;;;;;;;;;;5064758;28;20397;-75
2022/06/05 01:18:46;;;;;;;23.38;16.65;;;;;;;;;;5075187;28;20098;-74
2022/06/05 01:21:35;;;;;;;26.20;17.48;;;;;;;;;;5068321;28;20498;-75
2022/06/05 01:24:01;;;;;;;23.15;16.48;;;;;;;;;;5066785;28;20499;-74
2022/06/05 01:26:31;;;;;;;31.70;18.27;;;;;;;;;;5062340;28;20507;-74
2022/06/05 01:29:03;;;;;;;26.33;17.05;;;;;;;;;;5061130;28;20037;-75
2022/06/05 01:31:29;;;;;;;26.25;17.38;;;;;;;;;;5081415;28;20076;-74
2022/06/05 01:34:02;;;;;;;27.98;19.67;;;;;;;;;;5086915;28;20067;-74
2022/06/05 01:36:32;;;;;;;27.85;18.15;;;;;;;;;;5094993;28;20032;-74
2022/06/05 01:39:01;;;;;;;23.92;18.83;;;;;;;;;;5085633;28;20040;-74
2022/06/05 01:41:32;;;;;;;26.80;17.48;;;;;;;;;;5066008;28;20037;-75
2022/06/05 01:43:59;;;;;;;27.67;18.90;;;;;;;;;;5067704;28;20084;-74
2022/06/05 01:46:39;;;;;;;30.95;18.50;;;;;;;;;;5057883;28;20056;-74
2022/06/05 01:49:24;;;;;;;26.90;17.92;;;;;;;;;;5070105;28;20487;-74
2022/06/05 01:51:57;;;;;;;26.00;17.52;;;;;;;;;;5057983;28;20044;-75
2022/06/05 01:54:27;;;;;;;28.52;17.60;;;;;;;;;;5071853;28;20036;-74
2022/06/05 01:56:55;;;;;;;25.20;17.88;;;;;;;;;;5075934;28;20036;-75
2022/06/05 01:59:24;;;;;;;27.77;17.95;;;;;;;;;;5066345;28;20037;-75
2022/06/05 02:01:53;;;;;;;30.17;19.25;;;;;;;;;;5069925;28;20099;-75
2022/06/05 02:04:25;;;;;;;30.67;18.70;;;;;;;;;;5067985;28;20048;-75
2022/06/05 02:06:53;;;;;;;28.25;18.17;;;;;;;;;;5066301;28;20520;-74
2022/06/05 02:09:23;;;;;;;27.77;17.48;;;;;;;;;;5071421;28;20445;-74
2022/06/05 02:11:50;;;;;;;29.73;19.15;;;;;;;;;;5071851;28;20055;-74
2022/06/05 02:14:16;;;;;;;26.60;18.98;;;;;;;;;;5073036;28;20390;-74
2022/06/05 02:16:43;;;;;;;29.95;19.35;;;;;;;;;;5072216;28;20399;-75
2022/06/05 02:19:12;;;;;;;25.63;16.52;;;;;;;;;;5065489;28;20041;-75
2022/06/05 02:21:38;;;;;;;25.85;16.73;;;;;;;;;;5062377;28;20044;-75
2022/06/05 02:24:06;;;;;;;28.42;19.38;;;;;;;;;;5071111;28;20040;-75
2022/06/05 02:26:32;;;;;;;31.00;19.33;;;;;;;;;;5072069;28;20049;-76
2022/06/05 02:29:00;;;;;;;30.10;19.30;;;;;;;;;;5073617;28;20495;-75
2022/06/05 02:31:37;;;;;;;27.13;19.13;;;;;;;;;;5058428;28;20742;-75
2022/06/05 02:34:06;;;;;;;30.98;19.40;;;;;;;;;;5060155;28;20116;-75
2022/06/05 02:36:35;;;;;;;29.73;19.98;;;;;;;;;;5079889;28;20049;-75
2022/06/05 02:39:04;;;;;;;29.00;19.60;;;;;;;;;;5073695;28;20055;-74
2022/06/05 02:41:49;;;;;;;31.20;20.75;;;;;;;;;;5071649;28;20040;-74
2022/06/05 02:44:30;;;;;;;30.17;19.52;;;;;;;;;;5072506;28;20045;-75
2022/06/05 02:46:58;;;;;;;27.45;18.38;;;;;;;;;;5072909;28;20072;-75
2022/06/05 02:49:36;;;;;;;31.75;20.30;;;;;;;;;;5064624;28;20398;-74
2022/06/05 02:52:04;;;;;;;33.42;21.58;;;;;;;;;;5067760;28;20048;-75
2022/06/05 02:54:30;;;;;;;32.70;21.40;;;;;;;;;;5071904;28;20052;-75
2022/06/05 02:56:56;;;;;;;28.42;21.17;;;;;;;;;;5070257;28;20075;-74
2022/06/05 02:59:23;;;;;;;26.58;18.33;;;;;;;;;;5072919;28;20486;-74
2022/06/05 03:04:34;;;;;;;39.97;20.25;;;;;;;;;;5068926;28;20052;-74
2022/06/05 03:07:00;;;;;;;31.83;20.98;;;;;;;;;;5072631;28;20055;-74
2022/06/05 03:09:26;;;;;;;30.77;20.40;;;;;;;;;;5075414;28;20049;-74
2022/06/05 03:11:52;;;;;;;35.00;21.13;;;;;;;;;;5077315;28;20095;-75
2022/06/05 03:14:18;;;;;;;36.47;21.40;;;;;;;;;;5073012;28;20045;-75
2022/06/05 03:16:44;;;;;;;39.20;22.25;;;;;;;;;;5055998;28;20422;-74
2022/06/05 03:19:11;;;;;;;34.72;22.25;;;;;;;;;;5054815;28;20069;-74
2022/06/05 03:21:38;;;;;;;32.20;22.67;;;;;;;;;;5059002;28;20403;-75
2022/06/05 03:24:05;;;;;;;34.30;19.90;;;;;;;;;;5056403;28;20055;-74
2022/06/05 03:26:31;;;;;;;32.92;22.15;;;;;;;;;;5067940;28;20044;-75
2022/06/05 03:28:57;;;;;;;32.75;20.13;;;;;;;;;;5076572;28;20044;-75
2022/06/05 03:31:23;;;;;;;35.17;21.80;;;;;;;;;;5072439;28;20093;-74
2022/06/05 03:33:49;;;;;;;30.75;19.83;;;;;;;;;;5075971;28;20510;-74
2022/06/05 03:36:16;;;;;;;35.53;22.13;;;;;;;;;;5061679;28;20113;-76
2022/06/05 03:38:43;;;;;;;31.85;21.10;;;;;;;;;;5056779;28;20049;-75
2022/06/05 03:41:09;;;;;;;32.38;21.75;;;;;;;;;;5068465;28;20040;-75
2022/06/05 03:43:36;;;;;;;36.47;22.20;;;;;;;;;;5073078;28;20053;-75
2022/06/05 03:46:07;;;;;;;34.85;22.77;;;;;;;;;;5062476;28;20491;-75
2022/06/05 03:48:34;;;;;;;32.47;22.50;;;;;;;;;;5073376;28;20407;-75
2022/06/05 03:51:00;;;;;;;35.38;21.63;;;;;;;;;;5075812;28;20048;-74
2022/06/05 03:53:26;;;;;;;31.25;22.48;;;;;;;;;;5075071;28;20052;-75
2022/06/05 03:55:52;;;;;;;30.63;22.35;;;;;;;;;;5056697;28;20111;-75
2022/06/05 03:58:18;;;;;;;34.08;22.60;;;;;;;;;;5072408;28;20459;-75
2022/06/05 04:00:44;;;;;;;31.55;21.58;;;;;;;;;;5074719;28;20089;-75
2022/06/05 04:03:10;;;;;;;34.78;22.33;;;;;;;;;;5077682;28;20059;-75
2022/06/05 04:05:36;;;;;;;32.13;21.05;;;;;;;;;;5067443;28;20037;-75
2022/06/05 04:08:03;;;;;;;33.90;21.55;;;;;;;;;;5076433;28;20057;-75
2022/06/05 04:10:29;;;;;;;29.90;21.40;;;;;;;;;;5077672;28;20048;-75
2022/06/05 04:12:55;;;;;;;28.08;20.25;;;;;;;;;;5061467;28;20040;-75
2022/06/05 04:15:21;;;;;;;29.85;21.30;;;;;;;;;;5060985;28;20527;-74
2022/06/05 04:17:47;;;;;;;28.05;21.25;;;;;;;;;;5056047;28;20194;-75
2022/06/05 04:20:13;;;;;;;26.02;20.08;;;;;;;;;;5054882;28;20041;-74
2022/06/05 04:22:40;;;;;;;26.08;20.00;;;;;;;;;;5055525;28;20041;-75
2022/06/05 04:25:07;;;;;;;25.48;20.70;;;;;;;;;;5063141;28;20076;-75
2022/06/05 04:27:34;;;;;;;29.00;21.15;;;;;;;;;;5065083;28;20037;-75
2022/06/05 04:30:00;;;;;;;26.83;20.73;;;;;;;;;;5060248;28;20036;-74
2022/06/05 04:32:26;;;;;;;25.95;20.77;;;;;;;;;;5055615;28;20048;-74
2022/06/05 04:34:53;;;;;;;24.50;19.88;;;;;;;;;;5067797;28;20037;-75
2022/06/05 04:37:19;;;;;;;26.27;19.48;;;;;;;;;;5065661;28;20053;-73
2022/06/05 04:39:45;;;;;;;24.35;19.13;;;;;;;;;;5061278;28;20513;-74
2022/06/05 04:42:11;;;;;;;25.77;19.77;;;;;;;;;;5054576;28;20068;-75
2022/06/05 04:44:37;;;;;;;22.95;19.00;;;;;;;;;;5069745;28;20044;-75
2022/06/05 04:47:04;;;;;;;22.83;18.45;;;;;;;;;;5075521;28;20071;-75
2022/06/05 04:49:30;;;;;;;26.17;18.77;;;;;;;;;;5071594;28;20041;-74
2022/06/05 04:51:56;;;;;;;25.55;19.67;;;;;;;;;;5073171;28;20048;-74
2022/06/05 04:54:22;;;;;;;24.63;19.45;;;;;;;;;;5075521;28;20043;-73
2022/06/05 04:56:48;;;;;;;26.20;20.25;;;;;;;;;;5072751;28;20072;-74
2022/06/05 04:59:14;;;;;;;24.10;19.10;;;;;;;;;;5073162;28;20072;-75
2022/06/05 05:01:40;;;;;;;22.70;18.08;;;;;;;;;;5068868;28;20399;-75
2022/06/05 05:04:08;;;;;;;21.80;19.13;;;;;;;;;;5067590;28;20044;-75
2022/06/05 05:06:35;;;;;;;23.48;17.73;;;;;;;;;;5068843;28;20045;-75
2022/06/05 05:09:01;;;;;;;21.23;17.73;;;;;;;;;;5071649;28;20083;-75
2022/06/05 05:11:27;;;;;;;22.83;17.23;;;;;;;;;;5069007;28;20491;-75
2022/06/05 05:13:57;;;;;;;21.10;18.42;;;;;;;;;;5061549;28;20080;-75
2022/06/05 05:16:24;;;;;;;22.10;16.90;;;;;;;;;;5070098;28;20094;-73
2022/06/05 05:18:50;;;;;;;21.77;17.17;;;;;;;;;;5086507;28;20052;-74
2022/06/05 05:21:18;;;;;;;19.98;17.15;;;;;;;;;;5094250;28;20055;-75
2022/06/05 05:23:44;;;;;;;17.85;15.45;;;;;;;;;;5095424;28;20040;-74
2022/06/05 05:26:12;;;;;;;18.98;16.20;;;;;;;;;;5055491;28;20045;-76
2022/06/05 05:28:38;;;;;;;19.27;16.23;;;;;;;;;;5072634;28;20040;-75
2022/06/05 05:31:09;;;;;;;17.70;15.07;;;;;;;;;;5084716;28;20571;-74
2022/06/05 05:33:35;;;;;;;18.73;15.53;;;;;;;;;;5095114;28;20097;-74
2022/06/05 05:36:01;;;;;;;18.55;15.02;;;;;;;;;;5067655;28;20045;-75
2022/06/05 05:38:27;;;;;;;21.48;15.80;;;;;;;;;;5063818;28;20510;-75
2022/06/05 05:43:38;;;;;;;18.40;15.43;;;;;;;;;;5064404;28;20490;-75
2022/06/05 05:46:07;;;;;;;16.92;15.00;;;;;;;;;;5054637;28;20060;-74
2022/06/05 05:48:33;;;;;;;18.27;14.27;;;;;;;;;;5061273;28;20040;-75
2022/06/05 05:51:00;;;;;;;17.95;14.77;;;;;;;;;;5073532;28;20048;-74
2022/06/05 05:53:26;;;;;;;17.83;14.80;;;;;;;;;;5072999;28;20457;-76
2022/06/05 05:55:52;;;;;;;16.58;14.52;;;;;;;;;;5063369;28;20044;-74
2022/06/05 05:58:18;;;;;;;19.92;15.73;;;;;;;;;;5069862;28;20032;-74
2022/06/05 06:00:44;;;;;;;18.42;15.60;;;;;;;;;;5044158;28;20055;-74
2022/06/05 06:03:10;;;;;;;19.30;15.48;;;;;;;;;;5054181;28;20052;-75
2022/06/05 06:05:37;;;;;;;19.05;15.60;;;;;;;;;;5065599;28;20072;-76
2022/06/05 06:08:03;;;;;;;18.83;14.45;;;;;;;;;;5053278;28;20080;-75
2022/06/05 06:10:29;;;;;;;17.95;14.30;;;;;;;;;;5057171;28;20041;-75
2022/06/05 06:12:55;;;;;;;16.77;14.27;;;;;;;;;;5064122;28;20110;-74
2022/06/05 06:15:21;;;;;;;18.63;14.38;;;;;;;;;;5072090;28;20371;-75
2022/06/05 06:17:47;;;;;;;17.10;14.40;;;;;;;;;;5054928;28;20110;-74
2022/06/05 06:20:13;;;;;;;16.52;14.15;;;;;;;;;;5056014;28;20037;-74
2022/06/05 06:22:41;;;;;;;18.70;14.73;;;;;;;;;;5054859;28;20380;-75
2022/06/05 06:25:07;;;;;;;17.67;14.68;;;;;;;;;;5053995;28;20064;-76
2022/06/05 06:27:33;;;;;;;16.30;14.20;;;;;;;;;;5057821;28;20386;-75
2022/06/05 06:29:59;;;;;;;18.40;13.82;;;;;;;;;;5060631;28;20471;-74
2022/06/05 06:32:25;;;;;;;16.73;13.70;;;;;;;;;;5066356;28;20043;-74
2022/06/05 06:34:51;;;;;;;15.88;13.02;;;;;;;;;;5058117;28;20372;-75
2022/06/05 06:37:20;;;;;;;18.85;13.70;;;;;;;;;;5053366;28;20049;-75
2022/06/05 06:39:46;;;;;;;16.90;12.82;;;;;;;;;;5058814;28;20094;-75
2022/06/05 06:42:12;;;;;;;13.68;11.88;;;;;;;;;;5067760;28;20102;-75
2022/06/05 06:44:38;;;;;;;15.05;12.00;;;;;;;;;;5061169;28;20045;-74
2022/06/05 06:47:04;;;;;;;15.88;13.00;;;;;;;;;;5056155;28;20049;-75
2022/06/05 06:49:31;;;;;;;14.10;12.60;;;;;;;;;;5063540;28;20045;-75
2022/06/05 06:51:57;;;;;;;17.05;14.07;;;;;;;;;;5057388;28;20081;-75
2022/06/05 06:54:23;;;;;;;16.00;13.18;;;;;;;;;;5072499;28;20045;-74
2022/06/05 06:56:50;;;;;;;15.45;12.43;;;;;;;;;;5062016;28;20072;-76
2022/06/05 06:59:16;;;;;;;14.63;11.80;;;;;;;;;;5056005;28;20047;-75
2022/06/05 07:01:42;;;;;;;13.63;11.93;;;;;;;;;;5060389;28;20076;-76
2022/06/05 07:04:11;;;;;;;13.75;11.90;;;;;;;;;;5053703;28;20056;-76
2022/06/05 07:06:37;;;;;;;13.93;11.77;;;;;;;;;;5065040;28;20050;-74
2022/06/05 07:09:03;;;;;;;12.48;11.13;;;;;;;;;;5067457;28;20052;-75
2022/06/05 07:11:29;;;;;;;13.63;11.93;;;;;;;;;;5052813;28;20407;-75
2022/06/05 07:13:56;;;;;;;12.20;10.80;;;;;;;;;;5052728;28;20091;-75
2022/06/05 07:16:22;;;;;;;13.30;10.52;;;;;;;;;;5053712;28;20053;-76
2022/06/05 07:18:48;;;;;;;16.70;11.23;;;;;;;;;;5064671;28;20040;-76
2022/06/05 07:21:17;;;;;;;12.45;10.65;;;;;;;;;;5052924;28;20713;-75
2022/06/05 07:23:43;;;;;;;12.25;10.77;;;;;;;;;;5063948;28;20072;-75
2022/06/05 07:26:11;;;;;;;10.93;9.77;;;;;;;;;;5055150;28;20510;-75
2022/06/05 07:28:37;;;;;;;11.70;10.50;;;;;;;;;;5066572;28;20049;-75
2022/06/05 07:31:04;;;;;;;12.90;9.75;;;;;;;;;;5064618;28;20487;-75
2022/06/05 07:33:31;;;;;;;12.27;10.13;;;;;;;;;;5072284;28;20048;-75
2022/06/05 07:35:58;;;;;;;11.48;9.32;;;;;;;;;;5056557;28;20095;-75
2022/06/05 07:38:24;;;;;;;13.80;9.70;;;;;;;;;;5059071;28;20159;-75
2022/06/05 07:40:50;;;;;;;10.70;9.23;;;;;;;;;;5052357;28;20052;-75
2022/06/05 07:43:16;;;;;;;11.77;9.48;;;;;;;;;;5052011;28;20068;-75
2022/06/05 07:45:45;;;;;;;11.98;9.80;;;;;;;;;;5054149;28;20099;-75
2022/06/05 07:48:11;;;;;;;11.90;9.80;;;;;;;;;;5069685;28;20112;-75
2022/06/05 07:54:26;;;;;;;11.65;8.77;;;;;;;;;;5070263;28;20041;-75
2022/06/05 07:56:08;;;;;;;9.27;7.90;;;;;;;;;;5061000;28;20041;-74
2022/06/05 07:58:34;;;;;;;15.73;8.85;;;;;;;;;;5063410;28;20041;-74
2022/06/05 08:01:00;;;;;;;11.98;8.70;;;;;;;;;;5055860;28;20047;-74
2022/06/05 08:03:26;;;;;;;12.40;8.80;;;;;;;;;;5052539;28;20459;-74
2022/06/05 08:05:52;;;;;;;11.25;8.88;;;;;;;;;;5052250;28;20082;-74
2022/06/05 08:08:18;;;;;;;11.60;8.80;;;;;;;;;;5063087;28;20033;-74
2022/06/05 08:10:44;;;;;;;12.18;9.10;;;;;;;;;;5067478;28;20397;-74
2022/06/05 08:13:10;;;;;;;12.90;9.00;;;;;;;;;;5064118;28;20049;-74
2022/06/05 08:15:36;;;;;;;12.25;9.30;;;;;;;;;;5067566;28;20051;-74
2022/06/05 08:18:02;;;;;;;11.52;8.45;;;;;;;;;;5066307;28;20047;-73
2022/06/05 08:20:28;;;;;;;12.75;8.50;;;;;;;;;;5063438;28;20045;-74
2022/06/05 08:22:55;;;;;;;10.55;8.73;;;;;;;;;;5059759;28;20081;-73
2022/06/05 08:25:21;;;;;;;11.90;9.10;;;;;;;;;;5076940;28;20053;-75
2022/06/05 08:27:48;;;;;;;12.25;8.95;;;;;;;;;;5069165;28;20045;-75
2022/06/05 08:30:14;;;;;;;12.93;8.75;;;;;;;;;;5061564;28;20049;-75
2022/06/05 08:32:40;;;;;;;9.52;8.20;;;;;;;;;;5060093;28;20052;-75
2022/06/05 08:35:07;;;;;;;9.98;8.43;;;;;;;;;;5078286;28;20036;-75
2022/06/05 08:43:22;;;;;;;12.50;8.60;;;;;;;;;;5061067;28;20057;-74
2022/06/05 08:45:54;;;;;;;9.63;8.25;;;;;;;;;;5069530;28;20033;-75
2022/06/05 08:48:28;;;;;;;12.77;8.63;;;;;;;;;;5056457;28;20041;-76
2022/06/05 08:50:56;;;;;;;11.18;8.20;;;;;;;;;;5074017;28;20044;-76
2022/06/05 08:53:26;;;;;;;14.68;8.95;;;;;;;;;;5073714;28;20070;-75
2022/06/05 08:55:54;;;;;;;11.27;8.38;;;;;;;;;;5067161;28;20051;-74
2022/06/05 08:58:20;;;;;;;11.25;8.43;;;;;;;;;;5055067;28;20506;-73
2022/06/05 09:00:49;;;;;;;10.57;8.38;;;;;;;;;;5072146;28;20525;-75
2022/06/05 09:03:23;;;;;;;11.93;7.95;;;;;;;;;;5071432;28;20487;-74
2022/06/05 09:05:55;;;;;;;12.35;9.05;;;;;;;;;;5071826;28;20115;-74
2022/06/05 09:08:24;;;;;;;11.77;8.30;;;;;;;;;;5071967;28;20048;-74
2022/06/05 09:10:52;;;;;;;12.27;8.50;;;;;;;;;;5073440;28;20063;-75
2022/06/05 09:13:42;;;;;;;9.25;8.25;;;;;;;;;;5065235;28;20049;-75
2022/06/05 09:16:13;;;;;;;12.63;7.80;;;;;;;;;;5057021;28;20060;-75
2022/06/05 09:18:43;;;;;;;10.20;7.97;;;;;;;;;;5068887;28;20041;-75
2022/06/05 09:21:15;;;;;;;10.80;8.70;;;;;;;;;;5055727;28;20355;-75
2022/06/05 09:23:41;;;;;;;11.10;8.98;;;;;;;;;;5069735;28;20044;-76
2022/06/05 09:26:17;;;;;;;9.40;8.05;;;;;;;;;;5078367;28;20121;-75
2022/06/05 09:28:50;;;;;;;9.80;8.18;;;;;;;;;;5063106;28;20036;-75
2022/06/05 09:31:25;;;;;;;11.02;7.60;;;;;;;;;;5069645;28;20140;-75
2022/06/05 09:33:52;;;;;;;10.00;8.02;;;;;;;;;;5056944;28;20533;-75
2022/06/05 09:36:22;;;;;;;10.75;8.40;;;;;;;;;;5068389;28;20494;-75
2022/06/05 09:38:54;;;;;;;13.52;8.05;;;;;;;;;;5065631;28;20620;-76
2022/06/05 09:41:20;;;;;;;11.52;8.20;;;;;;;;;;5066572;28;20045;-76
2022/06/05 09:44:05;;;;;;;10.55;7.32;;;;;;;;;;5061117;28;20921;-76
2022/06/05 09:46:41;;;;;;;11.38;7.85;;;;;;;;;;5058619;28;20045;-76
2022/06/05 09:49:34;;;;;;;9.10;7.57;;;;;;;;;;5059742;28;20041;-76
2022/06/05 09:52:26;;;;;;;11.93;7.53;;;;;;;;;;5062285;28;20128;-77
2022/06/05 09:55:00;;;;;;;9.35;7.32;;;;;;;;;;5063226;28;20070;-76
2022/06/05 10:00:43;;;;;;;11.68;7.80;;;;;;;;;;5056095;28;20076;-76
2022/06/05 10:03:14;;;;;;;8.52;6.60;;;;;;;;;;5063860;28;20048;-76
2022/06/05 10:05:40;;;;;;;;;;;;;;;;;;5066655;28;20097;-75
2022/06/05 10:08:21;;;;;;;8.13;6.28;;;;;;;;;;5053473;28;19928;-76
2022/06/05 10:10:48;;;;;;;9.70;6.22;;;;;;;;;;5060517;28;20049;-76
2022/06/05 10:13:23;;;;;;;10.07;7.13;;;;;;;;;;5068278;28;20087;-75
2022/06/05 10:16:01;;;;;;;9.98;7.25;;;;;;;;;;5062400;28;20033;-76
2022/06/05 10:18:33;;;;;;;9.55;6.60;;;;;;;;;;5066785;28;20040;-75
2022/06/05 10:21:10;;;;;;;10.43;6.80;;;;;;;;;;5060736;28;20062;-75
2022/06/05 10:23:42;;;;;;;9.68;6.68;;;;;;;;;;5062093;28;20087;-75
2022/06/05 10:26:11;;;;;;;8.98;6.25;;;;;;;;;;5064597;28;20049;-76
2022/06/05 10:28:39;;;;;;;8.77;6.43;;;;;;;;;;5067373;28;20448;-76
2022/06/05 10:31:20;;;;;;;9.80;6.45;;;;;;;;;;5057380;28;20064;-76
2022/06/05 10:34:05;;;;;;;9.48;6.43;;;;;;;;;;5066030;28;20040;-76
2022/06/05 10:37:03;;;;;;;10.23;6.50;;;;;;;;;;5059476;28;20047;-77
2022/06/05 10:39:29;;;;;;;8.60;6.00;;;;;;;;;;5075043;28;20102;-76
2022/06/05 10:41:55;;;;;;;10.40;6.60;;;;;;;;;;5070325;28;20048;-76
2022/06/05 10:44:36;;;;;;;9.07;6.63;;;;;;;;;;5070493;28;20040;-76
2022/06/05 10:47:11;;;;;;;9.75;6.53;;;;;;;;;;5069870;28;20101;-75
2022/06/05 10:49:39;;;;;;;10.82;6.53;;;;;;;;;;5064353;28;20061;-76
2022/06/05 10:52:11;;;;;;;8.65;6.28;;;;;;;;;;5065069;28;20120;-76
2022/06/05 10:54:50;;;;;;;7.80;6.75;;;;;;;;;;5068473;28;20103;-75
2022/06/05 10:57:19;;;;;;;8.88;6.47;;;;;;;;;;5063274;28;21204;-76
2022/06/05 10:59:53;;;;;;;8.48;6.30;;;;;;;;;;5068897;28;20041;-76
2022/06/05 11:02:26;;;;;;;9.27;6.55;;;;;;;;;;5077891;28;20044;-76
2022/06/05 11:05:11;;;;;;;8.70;6.18;;;;;;;;;;5091418;28;20589;-76
2022/06/05 11:07:58;;;;;;;8.70;6.35;;;;;;;;;;5053363;28;20037;-76
2022/06/05 11:13:42;;;;;;;6.88;5.70;;;;;;;;;;5067773;28;20052;-77
2022/06/05 11:16:27;;;;;;;9.07;6.13;;;;;;;;;;5061972;28;20167;-77
2022/06/05 11:19:08;;;;;;;10.77;6.63;;;;;;;;;;5073837;28;20040;-77
2022/06/05 11:21:34;;;;;;;10.45;6.30;;;;;;;;;;5065067;28;20499;-77
2022/06/05 11:24:01;;;;;;;9.18;6.85;;;;;;;;;;5054914;28;20094;-77
2022/06/05 11:26:33;;;;;;;9.10;6.10;;;;;;;;;;5056083;28;20037;-77
2022/06/05 11:29:11;;;;;;;10.98;6.43;;;;;;;;;;5053368;28;20131;-76
2022/06/05 11:31:57;;;;;;;8.85;6.47;;;;;;;;;;5057321;28;20053;-76
2022/06/05 11:34:26;;;;;;;9.55;5.93;;;;;;;;;;5053035;28;20136;-75
2022/06/05 11:36:59;;;;;;;8.45;5.53;;;;;;;;;;5065380;28;20494;-77
2022/06/05 11:39:25;;;;;;;9.15;7.20;;;;;;;;;;5071901;28;20064;-77
2022/06/05 11:41:59;;;;;;;8.30;6.50;;;;;;;;;;5070771;28;20041;-76
2022/06/05 11:44:35;;;;;;;9.80;6.30;;;;;;;;;;5069970;28;20513;-75
2022/06/05 11:47:04;;;;;;;11.00;6.10;;;;;;;;;;5074310;28;20041;-76
2022/06/05 11:49:49;;;;;;;8.30;6.45;;;;;;;;;;5073940;28;20368;-76
2022/06/05 11:52:27;;;;;;;10.25;6.90;;;;;;;;;;5058179;28;20043;-77
2022/06/05 11:55:00;;;;;;;9.00;6.70;;;;;;;;;;5070659;28;20053;-76
2022/06/05 11:57:35;;;;;;;11.27;7.13;;;;;;;;;;5077046;28;20048;-75
2022/06/05 12:00:21;;;;;;;8.57;6.25;;;;;;;;;;5076739;28;20040;-76
2022/06/05 12:02:53;;;;;;;8.82;7.10;;;;;;;;;;5084569;28;20093;-75
2022/06/05 12:05:19;;;;;;;11.77;6.20;;;;;;;;;;5076616;28;20406;-76
2022/06/05 12:07:50;;;;;;;8.30;6.63;;;;;;;;;;5070831;28;20041;-76
2022/06/05 12:10:24;;;;;;;11.00;6.35;;;;;;;;;;5055153;28;20124;-76
2022/06/05 12:13:08;;;;;;;9.05;7.03;;;;;;;;;;5056512;28;20107;-75
2022/06/05 12:15:57;;;;;;;7.75;6.22;;;;;;;;;;5067483;28;20044;-77
2022/06/05 12:18:38;;;;;;;7.28;6.03;;;;;;;;;;5070658;28;20049;-76
2022/06/05 12:21:04;;;;;;;;;;;;;;;;;;5076459;28;20036;-77
2022/06/05 12:23:54;;;;;;;9.85;6.20;;;;;;;;;;5067644;28;19921;-76
2022/06/05 12:26:31;;;;;;;8.13;6.20;;;;;;;;;;5076047;28;20127;-77
2022/06/05 12:29:05;;;;;;;9.55;6.70;;;;;;;;;;5071466;28;20048;-76
2022/06/05 12:31:35;;;;;;;7.60;5.75;;;;;;;;;;5073216;28;20051;-77
2022/06/05 12:34:01;;;;;;;8.65;5.78;;;;;;;;;;5063696;28;20101;-76
2022/06/05 12:36:30;;;;;;;11.38;5.85;;;;;;;;;;5095157;28;20440;-76
2022/06/05 12:39:01;;;;;;;7.80;5.53;;;;;;;;;;5096151;28;20189;-76
2022/06/05 12:41:42;;;;;;;7.78;5.97;;;;;;;;;;5081879;28;20090;-77
2022/06/05 12:44:14;;;;;;;8.55;5.93;;;;;;;;;;5069994;28;20131;-77
2022/06/05 12:46:44;;;;;;;9.15;5.93;;;;;;;;;;5074849;28;20067;-77
2022/06/05 12:49:23;;;;;;;9.40;5.88;;;;;;;;;;5074638;28;20041;-77
2022/06/05 12:52:02;;;;;;;8.25;5.50;;;;;;;;;;5075992;28;20098;-77
2022/06/05 12:54:37;;;;;;;7.40;4.95;;;;;;;;;;5075437;28;20045;-76
2022/06/05 12:57:07;;;;;;;9.48;5.55;;;;;;;;;;5070598;28;20097;-77
2022/06/05 12:59:41;;;;;;;9.50;5.93;;;;;;;;;;5075010;28;20125;-77
2022/06/05 13:02:19;;;;;;;8.27;5.70;;;;;;;;;;5074506;28;20048;-77
2022/06/05 13:04:48;;;;;;;9.80;5.38;;;;;;;;;;5056131;28;20132;-77
2022/06/05 13:07:17;;;;;;;8.90;5.75;;;;;;;;;;5055799;28;20165;-77
2022/06/05 13:09:48;;;;;;;9.85;5.57;;;;;;;;;;5055163;28;20091;-76
2022/06/05 13:12:17;;;;;;;9.57;5.70;;;;;;;;;;5060575;28;20510;-76
2022/06/05 13:14:58;;;;;;;6.60;5.07;;;;;;;;;;5072343;28;20049;-76
2022/06/05 13:17:43;;;;;;;8.27;5.18;;;;;;;;;;5076996;28;20505;-77
2022/06/05 13:20:13;;;;;;;9.57;5.25;;;;;;;;;;5072562;28;20450;-77
2022/06/05 13:22:47;;;;;;;10.13;5.80;;;;;;;;;;5065806;28;20049;-77
2022/06/05 13:25:22;;;;;;;7.50;5.03;;;;;;;;;;5060577;28;20483;-76
2022/06/05 13:28:02;;;;;;;7.68;5.10;;;;;;;;;;5074466;28;20120;-76
2022/06/05 13:30:29;;;;;;;9.70;5.63;;;;;;;;;;5069147;28;20063;-76
2022/06/05 13:32:55;;;;;;;8.48;5.35;;;;;;;;;;5070122;28;20372;-76
2022/06/05 13:35:44;;;;;;;9.40;5.95;;;;;;;;;;5073504;28;20086;-75
2022/06/05 13:38:28;;;;;;;8.43;4.75;;;;;;;;;;5073958;28;20064;-75
2022/06/05 13:41:33;;;;;;;6.85;4.55;;;;;;;;;;5073486;28;20123;-75
2022/06/05 13:44:04;;;;;;;7.43;5.22;;;;;;;;;;5049338;28;20060;-76
2022/06/05 13:46:38;;;;;;;7.78;4.72;;;;;;;;;;5034616;28;20384;-76
2022/06/05 13:49:10;;;;;;;8.68;5.38;;;;;;;;;;5048448;28;20045;-76
2022/06/05 13:51:40;;;;;;;8.50;5.03;;;;;;;;;;5051733;28;20127;-75
2022/06/05 13:54:12;;;;;;;7.53;4.90;;;;;;;;;;5031169;28;20120;-76
2022/06/05 13:56:42;;;;;;;9.70;5.18;;;;;;;;;;5049999;28;20052;-74
2022/06/05 13:59:22;;;;;;;9.23;5.10;;;;;;;;;;5049263;28;20527;-76
2022/06/05 14:02:00;;;;;;;9.18;4.97;;;;;;;;;;5050675;28;20535;-76
2022/06/05 14:04:27;;;;;;;6.85;5.00;;;;;;;;;;5051878;28;20509;-76
2022/06/05 14:07:12;;;;;;;8.07;5.20;;;;;;;;;;5062136;28;20037;-76
2022/06/05 14:09:43;;;;;;;8.40;4.68;;;;;;;;;;5051002;28;20041;-76
2022/06/05 14:12:09;;;;;;;;;;;;;;;;;;5050917;28;20076;-77
2022/06/05 14:14:45;;;;;;;6.00;4.82;;;;;;;;;;5053496;28;19928;-76
2022/06/05 14:17:34;;;;;;;8.07;5.05;;;;;;;;;;5071505;28;20048;-76
2022/06/05 14:20:20;;;;;;;7.25;4.72;;;;;;;;;;5068395;28;20402;-75
2022/06/05 14:22:46;;;;;;;7.03;4.72;;;;;;;;;;5066973;28;20095;-76
2022/06/05 14:25:20;;;;;;;8.50;5.05;;;;;;;;;;5073101;28;20491;-76
2022/06/05 14:27:47;;;;;;;8.48;5.00;;;;;;;;;;5071412;28;20040;-76
2022/06/05 14:30:21;;;;;;;8.30;5.07;;;;;;;;;;5072085;28;20094;-76
2022/06/05 14:32:47;;;;;;;9.25;5.30;;;;;;;;;;5071580;28;20096;-75
2022/06/05 14:35:16;;;;;;;10.15;5.50;;;;;;;;;;5071556;28;20485;-76
2022/06/05 14:37:49;;;;;;;7.88;5.20;;;;;;;;;;5069917;28;20048;-75
2022/06/05 14:40:16;;;;;;;7.82;5.43;;;;;;;;;;5073135;28;20178;-75
2022/06/05 14:42:52;;;;;;;7.10;5.40;;;;;;;;;;5066391;28;20052;-74
2022/06/05 14:45:26;;;;;;;9.25;5.55;;;;;;;;;;5070729;28;20043;-75
2022/06/05 14:48:15;;;;;;;7.40;6.00;;;;;;;;;;5069204;28;20040;-75
2022/06/05 14:50:44;;;;;;;9.50;6.10;;;;;;;;;;5064942;28;20143;-76
2022/06/05 14:53:22;;;;;;;9.63;6.25;;;;;;;;;;5073282;28;20094;-77
2022/06/05 14:59:03;;;;;;;8.90;7.10;;;;;;;;;;5070352;28;20408;-75
2022/06/05 15:01:41;;;;;;;10.55;7.97;;;;;;;;;;5051214;28;20457;-76
2022/06/05 15:04:19;;;;;;;9.38;7.50;;;;;;;;;;5074110;28;20055;-77
2022/06/05 15:06:48;;;;;;;11.02;8.68;;;;;;;;;;5070435;28;20098;-76
2022/06/05 15:09:22;;;;;;;11.25;7.63;;;;;;;;;;5072566;28;20098;-76
2022/06/05 15:11:55;;;;;;;10.18;8.27;;;;;;;;;;5097455;28;20442;-76